• Join FlightAware (Why Join?)
  • Login
  • US Flag GB Flag 
03:12 EDT


 

Airport Tracker/Info


-or-


 

Live Flight TrackerFlight Track Log ✈ RPA3253 ✈ 18-Jun-2013 ✈ KCLT - KMSY

Flight Track Log - Related Links

Times and Time Zones

All times are in EDT time to prevent confusion due to time zone crossing. See the RPA3253 flight status page for this flight to view local times or setup timezone preferences in your user account.

Time Position Orientation Groundspeed Altitude Reporting Facility
EDT Latitude Longitude Course Direction KTS MPH feet Rate Location/Type
22:47 35.1869 -80.9511 251° West 173 199 1,500  Level Atlanta Center
22:47 35.1494 -80.9525 182° South 194 223 2,200 1,680 Climbing Atlanta Center
22:48 35.1239 -81.0169 244° Southwest 252 290 4,400 2,280 Climbing Atlanta Center
22:49 35.2667 -81.1784 270° West  Level FlightAware Approximate
22:49 35.1172 -81.0781 262° West 254 292 6,100  Level Atlanta Center
22:50 35.1976 -81.2463 199° South  Level FlightAware Approximate
22:50 35.1025 -81.1675 259° West 279 321 8,600  Level Atlanta Center
22:51 35.0970 -81.2799 192° South  Level FlightAware Approximate
22:51 35.0922 -81.2592 262° West 284 327 10,800  Level Atlanta Center
22:52 35.0535 -81.3877 251° West  Level FlightAware Approximate
22:52 35.0692 -81.3489 253° West 284 327 13,200  Level Atlanta Center
22:53 35.0458 -81.4256 250° West 284 327 15,200 2,040 Climbing Atlanta Center
22:54 35.0206 -81.5178 252° West 289 333 17,300 2,100 Climbing Atlanta Center
22:55 34.9892 -81.6175 249° West 300 345 19,500 2,040 Climbing Atlanta Center
22:56 34.9597 -81.7122 249° West 300 345 21,400 1,800 Climbing Atlanta Center
22:57 34.9281 -81.8144 249° West 314 361 23,100 1,080 Climbing Atlanta Center
22:58 34.8697 -81.9222 237° Southwest 332 382 23,600 900 Climbing Atlanta Center
22:59 34.8147 -82.0097 233° Southwest 352 405 24,900 1,260 Climbing Atlanta Center
23:00 34.7558 -82.1172 236° Southwest 372 428 26,200 1,500 Climbing Atlanta Center
23:01 34.6908 -82.2350 236° Southwest 388 447 27,900 1,320 Climbing Atlanta Center
23:02 34.6297 -82.3372 234° Southwest 388 447 28,900 960 Climbing Atlanta Center
23:03 34.5686 -82.4469 236° Southwest 388 447 29,900 900 Climbing Atlanta Center
23:04 34.5053 -82.5567 235° Southwest 393 452 30,700 720 Climbing Atlanta Center
23:05 34.4356 -82.6636 232° Southwest 399 459 31,400 780 Climbing Atlanta Center
23:06 34.3722 -82.7778 236° Southwest 404 465 32,300 840 Climbing Atlanta Center
23:07 34.3106 -82.8869 236° Southwest 404 465 33,100 900 Climbing Atlanta Center
23:08 34.2469 -82.9983 235° Southwest 404 465 34,100 900 Climbing Atlanta Center
23:09 34.1831 -83.1047 234° Southwest 404 465 35,000 780 Climbing Atlanta Center
23:10 34.1233 -83.2133 236° Southwest 404 465 35,700 480 Climbing Atlanta Center
23:11 34.0614 -83.3217 235° Southwest 404 465 36,000 120 Climbing Atlanta Center
23:12 34.0036 -83.4175 234° Southwest 404 465 36,000  Level Atlanta Center
23:13 33.9392 -83.5306 236° Southwest 404 465 36,000  Level Atlanta Center
23:14 33.8750 -83.6383 234° Southwest 404 465 36,000  Level Atlanta Center
23:15 33.8128 -83.7464 235° Southwest 404 465 36,000  Level Atlanta Center
23:16 33.7481 -83.8614 236° Southwest 411 473 36,000  Level Atlanta Center
23:17 33.6772 -83.9789 234° Southwest 411 473 36,000  Level Atlanta Center
23:18 33.6106 -84.0911 235° Southwest 405 466 36,000  Level Atlanta Center
23:19 33.5458 -84.2033 235° Southwest 405 466 36,000  Level Atlanta Center
23:20 33.4789 -84.3153 234° Southwest 410 472 36,000  Level Atlanta Center
23:21 33.4139 -84.4269 235° Southwest 410 472 36,000  Level Atlanta Center
23:22 33.3486 -84.5361 234° Southwest 410 472 36,000  Level Atlanta Center
23:23 33.2878 -84.6378 234° Southwest 410 472 36,000  Level Atlanta Center
23:24 33.2244 -84.7467 235° Southwest 410 472 36,000  Level Atlanta Center
23:25 33.1592 -84.8553 234° Southwest 410 472 36,000  Level Atlanta Center
23:26 33.0978 -84.9686 237° Southwest 410 472 36,000  Level Atlanta Center
23:27 33.0364 -85.0844 238° Southwest 415 478 36,000  Level Atlanta Center
23:28 32.9706 -85.2025 236° Southwest 410 472 36,000  Level Atlanta Center
23:29 32.9069 -85.3131 236° Southwest 410 472 36,000  Level Atlanta Center
23:30 32.8431 -85.4258 236° Southwest 410 472 36,000  Level Atlanta Center
23:31 32.7811 -85.5386 237° Southwest 410 472 36,000  Level Atlanta Center
23:32 32.7192 -85.6511 237° Southwest 410 472 36,000  Level Atlanta Center
23:33 32.6550 -85.7633 236° Southwest 410 472 36,000  Level Atlanta Center
23:34 32.5928 -85.8781 237° Southwest 410 472 36,000  Level Atlanta Center
23:35 32.5306 -85.9900 237° Southwest 410 472 36,000  Level Atlanta Center
23:36 32.4597 -86.1117 235° Southwest 430 495 36,000  Level Atlanta Center
23:37 32.3950 -86.2281 237° Southwest 436 502 36,000  Level Atlanta Center
23:38 32.3303 -86.3444 237° Southwest 436 502 36,000  Level Atlanta Center
23:39 32.2697 -86.4633 239° Southwest 429 494 36,000  Level Atlanta Center
23:40 32.2025 -86.5794 236° Southwest 429 494 36,000  Level Atlanta Center
23:41 32.1375 -86.6978 237° Southwest 434 499 36,000  Level Atlanta Center
23:42 32.0706 -86.7986 232° Southwest 434 499 36,000  Level Atlanta Center
23:43 32.0033 -86.9167 236° Southwest 434 499 36,000  Level Atlanta Center
23:44 31.9381 -87.0294 236° Southwest 434 499 36,000  Level Atlanta Center
23:45 31.8703 -87.1469 236° Southwest 434 499 36,000  Level Atlanta Center
23:46 31.8028 -87.2594 235° Southwest 434 499 36,000  Level Atlanta Center
23:47 31.7325 -87.3889 237° Southwest 434 499 36,000  Level Atlanta Center
23:49 31.5881 -87.6303 235° Southwest 426 490 36,000  Level Houston Center
23:50 31.5211 -87.7444 235° Southwest 427 491 36,000  Level Houston Center
23:51 31.4533 -87.8589 235° Southwest 429 494 36,000  Level Houston Center
23:52 31.3858 -87.9742 236° Southwest 431 496 36,000  Level Houston Center
23:53 31.3189 -88.0892 236° Southwest 432 497 36,000  Level Houston Center
23:54 31.2386 -88.2267 236° Southwest 434 499 36,000  Level Houston Center
23:55 31.1678 -88.3375 233° Southwest 432 497 36,000  Level Houston Center
23:56 31.0989 -88.4547 236° Southwest 439 505 36,000  Level Houston Center
23:57 31.0289 -88.5697 235° Southwest 437 503 36,000 -300 Level Houston Center
23:58 30.9614 -88.6806 235° Southwest 439 505 35,500 -1,080 Descending Houston Center
23:59 30.8911 -88.7981 235° Southwest 444 511 33,900 -1,620 Descending Houston Center
00:00 30.8181 -88.9181 235° Southwest 456 525 32,300 -1,860 Descending Houston Center
00:01 30.7411 -89.0450 235° Southwest 460 529 30,200 -2,880 Descending Houston Center
00:02 30.6678 -89.1661 235° Southwest 458 527 26,600 -3,480 Descending Houston Center
00:03 30.5953 -89.2831 234° Southwest 449 517 23,200 -2,880 Descending Houston Center
00:04 30.5328 -89.3864 235° Southwest 396 456 20,800 -2,340 Descending Houston Center
00:05 30.4739 -89.4842 235° Southwest 372 428 18,500 -2,220 Descending Houston Center
00:06 30.4150 -89.5794 234° Southwest 366 421 16,400 -2,160 Descending Houston Center
00:08 30.3644 -89.6750 239° Southwest 350 403 14,200 -2,400 Descending Houston Center
00:08 30.3314 -89.7386 239° Southwest 335 386 12,800 -2,040 Descending Houston Center
00:09 30.2864 -89.8272 240° Southwest 322 371 11,100 -1,440 Descending Houston Center
00:10 30.2411 -89.9158 239° Southwest 318 366 10,000 -900 Descending Houston Center
00:11 30.2239 -89.9458 236° Southwest 300 345 9,800 -1,440 Descending Houston Center
00:11 30.1981 -90.0019 242° Southwest 263 303 8,400 -2,160 Descending Houston Center
00:12 30.1794 -90.0703 253° West 261 300 6,600 -1,800 Descending Houston Center
00:13 30.1744 -90.1056 261° West 264 304 5,900 -1,320 Descending Houston Center
00:13 30.1675 -90.1547 261° West 236 272 5,300 -1,140 Descending Houston Center
00:14 30.1350 -90.1922 225° Southwest 197 227 4,300 -1,380 Descending Houston Center
00:15 30.1142 -90.2100 216° Southwest 203 234 3,300 -1,920 Descending Houston Center
00:16 30.0664 -90.2275 198° South 186 214 1,300 -1,440 Descending Houston Center
00:17 30.0264 -90.2392 194° South 169 194 500 -480 Descending Houston Center
00:18 29.9956 -90.2478 194° South 159 183 400 -120 Descending Houston Center
00:20 29.9833 -90.2500 235° Southwest  Level FlightAware Approximate
00:27 29.9934 -90.2580 235° Southwest  Level Estimated